Nearby METAR Reports

 

KBUF - Buffalo/Cheektow, New York, USA
Distance from station: ENE 2mi, 3km
Updated: 07/20/2018 4:54pm
Mostly cloudy
Mostly cloudy
 Wind from SSE
Wind: SSE 16 mph , 26 km/h
Temperature: 90°F , 32°C
Dew Point: 55°F , 13°C
Humidity: 31%
Barometer: 29.92 inHg , 1013.2 hPa
Clouds: Mostly cloudy
Visibility: 10 miles , 16 km
Cloud details: Few Clouds 7000 ft
Mostly cloudy 26000 ft
Mostly cloudy 30000 ft
2018/07/20 20:54 KBUF 202054Z 16014KT 10SM FEW070 BKN260 BKN300 32/13 A2992 RMK AO2 SLP128 T03170133 56019
KIAG - Niagara Falls, New York, USA
Distance from station: NNW 16mi, 25km
Updated: 07/20/2018 4:53pm
Clear
Clear
 Wind from SSW
Wind: SSW 14 mph , 22 km/h
Temperature: 90°F , 32°C
Dew Point: 54°F , 12°C
Humidity: 29%
Barometer: 29.90 inHg , 1012.5 hPa
Clouds: Clear
Visibility: 10 miles , 16 km
2018/07/20 20:53 KIAG 202053Z 20012KT 10SM CLR 32/12 A2990 RMK AO2 SLP122 T03170122 56018
 
CYSN - St. Catharines A, Ontario, Canada
Distance from station: NW 28mi, 45km
Updated: 07/20/2018 5:00pm
Overcast
Overcast
 Wind from S
Wind: S 15 mph , 24 km/h, Gust: 23 mph , 37 km/h
Temperature: 90°F , 32°C
Dew Point: 54°F , 12°C
Humidity: 29%
Barometer: 29.88 inHg , 1011.9 hPa
Clouds: Overcast
Visibility: 15 miles , 24 km
Cloud details: Few Clouds 10000 ft
Overcast 25000 ft
2018/07/20 21:00 CYSN 202100Z 18013G20KT 130V200 15SM FEW100 OVC250 32/12 A2988 RMK AC1CI8 AC TR SLP119 DENSITY ALT 2400FT
CWWZ - Port Weller (mar, Ontario, Canada
Distance from station: NW 32mi, 51km
Updated: 07/20/2018 5:00pm

 Wind from S
Wind: S 12 mph , 19 km/h, Gust: 17 mph , 28 km/h
Temperature: 86°F , 30°C
Heat Index: 85°F , 29°C
Dew Point: 59°F , 15°C
Humidity: 40%
2018/07/20 21:00 CWWZ 202100Z AUTO 17010G15KT 30/15 RMK AO1 PK WND 17018/2032 SLP119 T03040149 56018
 
CXVN - Vineland (au8), Ontario, Canada
Distance from station: WNW 37mi, 59km
Updated: 07/20/2018 5:00pm

 Wind from SSE
Wind: SSE 9 mph , 15 km/h
Temperature: 90°F , 32°C
Dew Point: 55°F , 13°C
Humidity: 31%
2018/07/20 21:00 CXVN 202100Z AUTO 16008KT 32/13 RMK AO1 SLP109 T03220131 56019
KDKK - Dunkirk, New York, USA
Distance from station: SW 39mi, 63km
Updated: 07/20/2018 4:53pm
Clear
Clear
 Wind from SSE
Wind: SSE 17 mph , 28 km/h, Gust: 24 mph , 39 km/h
Temperature: 88°F , 31°C
Dew Point: 59°F , 15°C
Humidity: 38%
Barometer: 29.91 inHg , 1012.9 hPa
Clouds: Clear
Visibility: 10 miles , 16 km
2018/07/20 20:53 KDKK 202053Z AUTO 15015G21KT 10SM CLR 31/15 A2991 RMK AO2 SLP121 T03060150 56019 $
 
KOLE - Olean, New York, USA
Distance from station: SSE 52mi, 83km
Updated: 07/20/2018 5:35pm
Partly cloudy
Partly cloudy
 Wind from S
Wind: S 10 mph , 17 km/h, Gust: 17 mph , 28 km/h
Temperature: 77°F , 25°C
Dew Point: 57°F , 14°C
Humidity: 51%
Barometer: 30.03 inHg , 1016.9 hPa
Clouds: Partly cloudy
Visibility: 10 miles , 16 km
Cloud details: Partly cloudy 5000 ft
2018/07/20 21:35 KOLE 202135Z AUTO 18009G15KT 10SM SCT050 25/14 A3003 RMK AO2
KROC - Rochester, New York, USA
Distance from station: ENE 56mi, 91km
Updated: 07/20/2018 4:54pm
Mostly cloudy
Mostly cloudy
 Wind from S
Wind: S 15 mph , 24 km/h, Gust: 25 mph , 41 km/h
Temperature: 90°F , 32°C
Dew Point: 55°F , 13°C
Humidity: 31%
Barometer: 29.96 inHg , 1014.6 hPa
Clouds: Mostly cloudy
Visibility: 10 miles , 16 km
Cloud details: Few Clouds 6000 ft
Mostly cloudy 22000 ft
2018/07/20 20:54 KROC 202054Z 17013G22KT 10SM FEW060 BKN220 32/13 A2996 RMK AO2 SLP145 T03170128 56017
 
CWWB - Burlington Piers, Ontario, Canada
Distance from station: WNW 57mi, 92km
Updated: 07/20/2018 5:00pm

 Wind from NE
Wind: NE 16 mph , 26 km/h
Temperature: 75°F , 24°C
Dew Point: 68°F , 20°C
Humidity: 78%
2018/07/20 21:00 CWWB 202100Z AUTO 05014KT 24/20 RMK AO1 PK WND 05019/2033 SLP116 T02410195 58018
CYTZ - Toronto Il Vor, Ontario, Canada
Distance from station: NNW 58mi, 94km
Updated: 07/20/2018 5:00pm
Clear
Clear
 Wind from ENE
Wind: ENE 20 mph , 31 km/h
Temperature: 79°F , 26°C
Dew Point: 68°F , 20°C
Humidity: 70%
Barometer: 29.90 inHg , 1012.5 hPa
Clouds: Clear
Visibility: 9 miles , 14 km
2018/07/20 21:00 CYTZ 202100Z AUTO 07017KT 9SM CLR 26/20 A2990 RMK SLP126 DENSITY ALT 1500FT
 
KDSV - Dansville, New York, USA
Distance from station: ESE 59mi, 95km
Updated: 07/20/2018 4:54pm
Partly cloudy
Partly cloudy
 Wind from SSE
Wind: SSE 16 mph , 26 km/h, Gust: 25 mph , 41 km/h
Temperature: 88°F , 31°C
Dew Point: 54°F , 12°C
Humidity: 31%
Barometer: 29.98 inHg , 1015.2 hPa
Clouds: Partly cloudy
Visibility: 10 miles , 16 km
Cloud details: Partly cloudy 7000 ft
2018/07/20 20:54 KDSV 202054Z AUTO 16014G22KT 10SM SCT070 31/12 A2998 RMK AO2 SLP158 T03060117 56016
CXTO - Toronto City, Ontario, Canada
Distance from station: NNW 60mi, 97km
Updated: 07/20/2018 5:00pm

 
Temperature: 81°F , 27°C
Heat Index: 81°F , 27°C
Dew Point: 59°F , 15°C
Humidity: 48%
2018/07/20 21:00 CXTO 202100Z AUTO 27/15 RMK AO1 SLP129 T02730153 57020
 
KJHW - Jamestown, New York, USA
Distance from station: SSW 60mi, 97km
Updated: 07/20/2018 4:56pm
Few Clouds
Few Clouds
 Wind from SSE
Wind: SSE 14 mph , 22 km/h, Gust: 24 mph , 39 km/h
Temperature: 81°F , 27°C
Heat Index: 82°F , 28°C
Dew Point: 61°F , 16°C
Humidity: 51%
Barometer: 29.98 inHg , 1015.2 hPa
Clouds: Few Clouds
Visibility: 10 miles , 16 km
Cloud details: Few Clouds 5000 ft
2018/07/20 20:56 KJHW 202056Z AUTO 15012G21KT 10SM FEW050 27/16 A2998 RMK AO2 SLP145 T02670156 56015
CYHM - Hamilton Airport, Ontario, Canada
Distance from station: WNW 61mi, 98km
Updated: 07/20/2018 5:00pm
Mostly cloudy
Mostly cloudy
 Wind from SE
Wind: SE 14 mph , 22 km/h, Gust: 20 mph , 31 km/h
Temperature: 86°F , 30°C
Heat Index: 85°F , 29°C
Dew Point: 59°F , 15°C
Humidity: 40%
Barometer: 29.90 inHg , 1012.5 hPa
Clouds: Mostly cloudy
Visibility: 15 miles , 24 km
Cloud details: Few Clouds 6500 ft
Mostly cloudy 7700 ft
Mostly cloudy 23000 ft
2018/07/20 21:00 CYHM 202100Z 14012G17KT 15SM FEW065 BKN077 BKN230 30/15 A2990 RMK CU2AC3CI1 CONTRAILS SLP123 DENSITY ALT 2700FT
 
CXHM - Hamilton Rbg Cs, Ontario, Canada
Distance from station: WNW 62mi, 100km
Updated: 07/20/2018 5:00pm

 Wind from E
Wind: E 5 mph , 7 km/h
Temperature: 79°F , 26°C
Dew Point: 64°F , 18°C
Humidity: 61%
2018/07/20 21:00 CXHM 202100Z AUTO 10004KT 26/18 RMK AO1 SLP115 T02580183 58016
CYYZ - Toronto/Pearson, Ontario, Canada
Distance from station: NW 67mi, 107km
Updated: 07/20/2018 5:00pm
Mostly cloudy
Mostly cloudy
 Wind from ESE
Wind: ESE 15 mph , 24 km/h, Gust: 22 mph , 35 km/h
Temperature: 84°F , 29°C
Heat Index: 84°F , 29°C
Dew Point: 61°F , 16°C
Humidity: 45%
Barometer: 29.91 inHg , 1012.9 hPa
Clouds: Mostly cloudy
Visibility: 15 miles , 24 km
Cloud details: Few Clouds 6000 ft
Partly cloudy 8000 ft
Mostly cloudy 22000 ft
2018/07/20 21:00 CYYZ 202100Z 11013G19KT 15SM FEW060 SCT080 BKN220 29/16 A2991 RMK CU2AC1CI4 SLP128 DENSITY ALT 2400FT
 
CWPS - Long Point (maps, Ontario, Canada
Distance from station: WSW 69mi, 111km
Updated: 07/20/2018 5:00pm

 Wind from E
Wind: E 17 mph , 28 km/h
Temperature: 81°F , 27°C
Heat Index: 83°F , 28°C
Dew Point: 64°F , 18°C
Humidity: 58%
2018/07/20 21:00 CWPS 202100Z AUTO 10015KT 27/18 RMK AO1 PK WND 11017/2041 SLP109 T02730183 57016
CYOO - Oshawa, Ontario, Canada
Distance from station: N 69mi, 111km
Updated: 07/20/2018 5:00pm
Clear
Clear
 Wind from E
Wind: E 18 mph , 30 km/h, Gust: 28 mph , 44 km/h
Temperature: 82°F , 28°C
Heat Index: 82°F , 28°C
Dew Point: 61°F , 16°C
Humidity: 48%
Barometer: 29.93 inHg , 1013.5 hPa
Clouds: Clear
Visibility: 9 miles , 14 km
2018/07/20 21:00 CYOO 202100Z AUTO 10016G24KT 9SM CLR 28/16 A2993 RMK SLP135 DENSITY ALT 2000FT
 
KELZ - Wellsville, New York, USA
Distance from station: SE 70mi, 112km
Updated: 07/20/2018 4:56pm
Clear
Clear
 Wind from SSE
Wind: SSE 15 mph , 24 km/h, Gust: 23 mph , 37 km/h
Temperature: 79°F , 26°C
Dew Point: 57°F , 14°C
Humidity: 48%
Barometer: 30.06 inHg , 1017.9 hPa
Clouds: Clear
Visibility: 10 miles , 16 km
2018/07/20 20:56 KELZ 202056Z AUTO 16013G20KT 10SM CLR 26/14 A3006 RMK AO2 SLP169 T02560139 56015
CYKZ - Toronto Buttonvi, Ontario, Canada
Distance from station: NNW 72mi, 116km
Updated: 07/20/2018 5:00pm
Mostly cloudy
Mostly cloudy
 Wind from ESE
Wind: ESE 17 mph , 28 km/h, Gust: 25 mph , 41 km/h
Temperature: 82°F , 28°C
Heat Index: 82°F , 28°C
Dew Point: 61°F , 16°C
Humidity: 48%
Barometer: 29.93 inHg , 1013.5 hPa
Clouds: Mostly cloudy
Visibility: 15 miles , 24 km
Cloud details: Few Clouds 6500 ft
Partly cloudy 22000 ft
Mostly cloudy 27000 ft
2018/07/20 21:00 CYKZ 202100Z 12015G22KT 15SM FEW065 SCT220 BKN270 28/16 A2993 RMK SC1CI4CI3 SC TR SLP136 DENSITY ALT 2300FT